< < Back
Terminal Aerodrome Forecast


Current Version              Previous Versions:   1  2  3  4  5  6  7  8  9  

Terminal Aerodrome Forecast

748
FTUS42 KGSP 271133
TAFGSP
TAF
KGSP 271133Z 2712/2812 35003KT P6SM SCT050
     FM271500 36007KT P6SM FEW050
     FM280800 05004KT P6SM SCT250=



Latest METAR

240
SAUS70 KWBC 271700 RRC
MTRGSP
METAR KGSP 271653Z VRB04KT 10SM FEW060 19/05 A2985 RMK AO2 SLP101
T01940050


USA.gov is the U.S. government's official web portal to all federal, state and local government web resources and services.